Time;durP1;ratioP1;P1;durP2;ratioP2;P2;SDS_P1;SDS_P2;PMS_P1;PMS_P2;Temp;Humidity;BMP_temperature;BMP_pressure;BME280_temperature;BME280_humidity;BME280_pressure;Samples;Min_cycle;Max_cycle;Signal;HPM_P1;HPM_P2
2023/07/08 00:00:22;;;;;;;9.60;4.22;;;;;;;;;;5015153;28;20378;-61
2023/07/08 00:02:48;;;;;;;9.77;4.50;;;;;;;;;;5031292;28;20159;-61
2023/07/08 00:05:14;;;;;;;9.27;4.10;;;;;;;;;;5017517;28;20118;-61
2023/07/08 00:07:40;;;;;;;10.27;4.40;;;;;;;;;;5020155;28;20025;-61
2023/07/08 00:10:24;;;;;;;8.45;4.40;;;;;;;;;;5031396;28;20441;-61
2023/07/08 00:12:51;;;;;;;6.82;4.20;;;;;;;;;;5018523;28;20098;-61
2023/07/08 00:15:16;;;;;;;7.93;4.18;;;;;;;;;;5030170;28;20030;-61
2023/07/08 00:17:42;;;;;;;12.60;4.35;;;;;;;;;;5020595;28;20474;-61
2023/07/08 00:20:17;;;;;;;9.20;4.50;;;;;;;;;;5026241;28;20104;-61
2023/07/08 00:22:42;;;;;;;8.10;4.20;;;;;;;;;;5013489;28;20033;-61
2023/07/08 00:25:08;;;;;;;10.43;4.55;;;;;;;;;;5013544;28;20489;-61
2023/07/08 00:27:33;;;;;;;8.13;4.60;;;;;;;;;;5013877;28;20026;-64
2023/07/08 00:30:00;;;;;;;10.05;4.85;;;;;;;;;;5015135;28;20052;-65
2023/07/08 00:32:26;;;;;;;9.32;4.72;;;;;;;;;;5017729;28;20025;-64
2023/07/08 00:34:51;;;;;;;8.43;4.82;;;;;;;;;;5014307;28;20104;-64
2023/07/08 00:37:16;;;;;;;9.30;4.72;;;;;;;;;;5028042;28;20061;-64
2023/07/08 00:39:41;;;;;;;8.55;4.70;;;;;;;;;;5027328;28;20026;-64
2023/07/08 00:42:13;;;;;;;8.95;4.78;;;;;;;;;;5033827;28;20036;-64
2023/07/08 00:44:39;;;;;;;10.18;4.50;;;;;;;;;;5021721;28;20036;-64
2023/07/08 00:47:07;;;;;;;9.45;4.50;;;;;;;;;;5014795;28;20101;-64
2023/07/08 00:49:55;;;;;;;7.70;4.68;;;;;;;;;;5013768;28;20065;-64
2023/07/08 00:52:25;;;;;;;9.52;4.68;;;;;;;;;;5014023;28;20025;-64
2023/07/08 00:54:54;;;;;;;9.45;4.85;;;;;;;;;;5018632;28;20029;-65
2023/07/08 00:57:20;;;;;;;12.75;5.00;;;;;;;;;;5032947;28;20073;-65
2023/07/08 00:59:49;;;;;;;9.00;4.70;;;;;;;;;;5026298;28;20500;-65
2023/07/08 01:02:16;;;;;;;9.23;4.65;;;;;;;;;;5034624;23;20907;-72
2023/07/08 01:04:48;;;;;;;8.43;4.82;;;;;;;;;;5050365;28;20033;-72
2023/07/08 01:07:21;;;;;;;9.80;4.97;;;;;;;;;;5050601;28;20105;-69
2023/07/08 01:09:48;;;;;;;9.20;5.05;;;;;;;;;;5048091;28;20017;-69
2023/07/08 01:12:16;;;;;;;7.78;4.85;;;;;;;;;;5050836;28;20029;-69
2023/07/08 01:14:42;;;;;;;8.38;4.72;;;;;;;;;;5048377;28;20031;-70
2023/07/08 01:17:13;;;;;;;9.80;5.03;;;;;;;;;;5049866;28;20108;-70
2023/07/08 01:19:40;;;;;;;8.52;4.80;;;;;;;;;;5052098;28;20028;-70
2023/07/08 01:22:06;;;;;;;8.65;4.85;;;;;;;;;;5052580;28;20029;-70
2023/07/08 01:24:34;;;;;;;14.05;5.18;;;;;;;;;;5052291;28;20044;-70
2023/07/08 01:27:00;;;;;;;10.63;4.85;;;;;;;;;;5055835;28;20032;-70
2023/07/08 01:29:26;;;;;;;9.70;5.40;;;;;;;;;;5055074;28;20408;-70
2023/07/08 01:31:51;;;;;;;8.38;4.97;;;;;;;;;;5054025;28;20024;-70
2023/07/08 01:34:17;;;;;;;11.32;5.13;;;;;;;;;;5052107;28;20053;-69
2023/07/08 01:36:46;;;;;;;7.68;4.90;;;;;;;;;;5054672;28;20021;-70
2023/07/08 01:39:13;;;;;;;8.70;5.10;;;;;;;;;;5055167;28;20025;-70
2023/07/08 01:41:38;;;;;;;8.45;5.07;;;;;;;;;;5054027;28;20473;-70
2023/07/08 01:44:03;;;;;;;11.93;5.30;;;;;;;;;;5049264;28;20036;-70
2023/07/08 01:46:28;;;;;;;12.07;5.78;;;;;;;;;;5051756;28;20112;-70
2023/07/08 01:48:59;;;;;;;9.75;5.35;;;;;;;;;;5055225;28;20024;-70
2023/07/08 01:51:25;;;;;;;11.90;5.35;;;;;;;;;;5053969;28;20415;-70
2023/07/08 01:53:50;;;;;;;9.13;5.78;;;;;;;;;;5047642;28;20021;-71
2023/07/08 01:56:16;;;;;;;9.82;5.78;;;;;;;;;;5035715;28;20428;-71
2023/07/08 01:58:41;;;;;;;10.15;5.80;;;;;;;;;;5035663;28;20017;-71
2023/07/08 02:01:07;;;;;;;11.13;5.18;;;;;;;;;;5048234;28;20033;-71
2023/07/08 02:03:33;;;;;;;10.23;5.70;;;;;;;;;;5039012;28;20140;-71
2023/07/08 02:05:58;;;;;;;8.70;5.53;;;;;;;;;;5035580;28;20029;-65
2023/07/08 02:08:23;;;;;;;8.73;5.10;;;;;;;;;;5035713;28;20475;-66
2023/07/08 02:10:50;;;;;;;11.18;5.30;;;;;;;;;;5042048;28;20044;-65
2023/07/08 02:13:15;;;;;;;8.45;4.90;;;;;;;;;;5039894;28;20391;-66
2023/07/08 02:15:40;;;;;;;10.90;5.60;;;;;;;;;;5035580;28;20021;-66
2023/07/08 02:18:06;;;;;;;9.32;5.40;;;;;;;;;;5054888;28;20028;-66
2023/07/08 02:20:31;;;;;;;9.25;5.10;;;;;;;;;;5054931;28;20021;-66
2023/07/08 02:22:56;;;;;;;8.75;5.40;;;;;;;;;;5055067;28;20423;-65
2023/07/08 02:25:22;;;;;;;13.50;5.80;;;;;;;;;;5049148;28;20480;-65
2023/07/08 02:27:47;;;;;;;13.48;6.00;;;;;;;;;;5035995;28;20091;-65
2023/07/08 02:30:12;;;;;;;8.30;5.45;;;;;;;;;;5044939;28;20095;-65
2023/07/08 02:32:38;;;;;;;8.38;5.40;;;;;;;;;;5054058;28;20393;-66
2023/07/08 02:35:04;;;;;;;9.32;6.18;;;;;;;;;;5051429;28;20032;-65
2023/07/08 02:37:30;;;;;;;8.90;5.10;;;;;;;;;;5034523;28;20037;-65
2023/07/08 02:39:55;;;;;;;10.07;5.18;;;;;;;;;;5033483;28;20076;-65
2023/07/08 02:42:20;;;;;;;10.38;5.45;;;;;;;;;;5034680;28;20488;-65
2023/07/08 02:44:46;;;;;;;8.00;4.93;;;;;;;;;;5040173;28;20358;-65
2023/07/08 02:47:11;;;;;;;9.13;5.68;;;;;;;;;;5052716;28;20505;-66
2023/07/08 02:49:37;;;;;;;9.82;5.75;;;;;;;;;;5054245;28;20032;-66
2023/07/08 02:52:02;;;;;;;7.43;5.25;;;;;;;;;;5054689;28;20028;-66
2023/07/08 02:54:27;;;;;;;10.18;5.78;;;;;;;;;;5048590;28;20029;-66
2023/07/08 02:56:53;;;;;;;10.50;5.75;;;;;;;;;;5034672;28;20566;-65
2023/07/08 02:59:18;;;;;;;13.57;6.22;;;;;;;;;;5031307;28;20032;-66
2023/07/08 03:01:43;;;;;;;7.53;5.32;;;;;;;;;;5043170;28;20108;-66
2023/07/08 03:04:12;;;;;;;11.18;6.13;;;;;;;;;;5034872;28;20054;-65
2023/07/08 03:06:37;;;;;;;9.18;5.70;;;;;;;;;;5033384;28;20105;-66
2023/07/08 03:09:03;;;;;;;9.93;5.53;;;;;;;;;;5032098;28;20049;-65
2023/07/08 03:11:28;;;;;;;8.43;5.20;;;;;;;;;;5033161;28;20537;-66
2023/07/08 03:13:53;;;;;;;8.90;5.55;;;;;;;;;;5034732;28;20098;-66
2023/07/08 03:16:18;;;;;;;8.77;5.22;;;;;;;;;;5043250;28;20424;-66
2023/07/08 03:18:46;;;;;;;9.77;5.05;;;;;;;;;;5033362;28;20436;-66
2023/07/08 03:21:13;;;;;;;8.27;5.28;;;;;;;;;;5034034;28;20021;-66
2023/07/08 03:23:38;;;;;;;9.80;5.45;;;;;;;;;;5039198;28;20427;-66
2023/07/08 03:26:04;;;;;;;11.10;5.60;;;;;;;;;;5033238;28;20021;-66
2023/07/08 03:28:29;;;;;;;8.35;5.15;;;;;;;;;;5031180;28;20105;-66
2023/07/08 03:30:54;;;;;;;8.52;5.40;;;;;;;;;;5048560;28;20389;-65
2023/07/08 03:33:20;;;;;;;9.43;5.18;;;;;;;;;;5042896;28;20444;-66
2023/07/08 03:35:45;;;;;;;11.32;6.20;;;;;;;;;;5032493;28;20041;-66
2023/07/08 03:38:11;;;;;;;7.75;5.30;;;;;;;;;;5032170;28;20022;-66
2023/07/08 03:40:36;;;;;;;7.80;5.30;;;;;;;;;;5032490;28;20025;-66
2023/07/08 03:43:01;;;;;;;10.70;5.72;;;;;;;;;;5030724;28;20033;-65
2023/07/08 03:45:26;;;;;;;8.30;5.13;;;;;;;;;;5038415;28;20021;-66
2023/07/08 03:47:52;;;;;;;8.98;5.20;;;;;;;;;;5030795;28;20026;-66
2023/07/08 03:50:19;;;;;;;7.15;4.80;;;;;;;;;;5031948;28;20101;-66
2023/07/08 03:52:45;;;;;;;8.32;4.63;;;;;;;;;;5031891;28;20070;-65
2023/07/08 03:55:11;;;;;;;12.60;5.07;;;;;;;;;;5037951;28;20026;-65
2023/07/08 03:57:36;;;;;;;7.28;4.50;;;;;;;;;;5016630;28;20465;-66
2023/07/08 04:00:01;;;;;;;12.02;6.45;;;;;;;;;;5034100;28;20078;-65
2023/07/08 04:02:26;;;;;;;8.30;5.10;;;;;;;;;;5032594;28;20091;-66
2023/07/08 04:04:51;;;;;;;8.10;4.90;;;;;;;;;;5046668;28;20032;-65
2023/07/08 04:07:17;;;;;;;8.40;4.85;;;;;;;;;;5032544;28;20021;-66
2023/07/08 04:09:43;;;;;;;8.50;4.68;;;;;;;;;;5039476;28;20507;-65
2023/07/08 04:12:10;;;;;;;8.25;4.80;;;;;;;;;;5033127;28;20025;-65
2023/07/08 04:14:35;;;;;;;8.95;4.28;;;;;;;;;;5032516;28;20037;-65
2023/07/08 04:17:00;;;;;;;8.07;4.57;;;;;;;;;;5031789;28;20389;-65
2023/07/08 04:19:26;;;;;;;8.20;4.28;;;;;;;;;;5031336;28;20026;-65
2023/07/08 04:21:52;;;;;;;8.18;4.90;;;;;;;;;;5032204;28;20486;-65
2023/07/08 04:24:18;;;;;;;7.35;4.00;;;;;;;;;;5031031;28;20049;-65
2023/07/08 04:26:46;;;;;;;8.07;4.00;;;;;;;;;;5031587;28;20037;-66
2023/07/08 04:29:21;;;;;;;7.85;4.25;;;;;;;;;;5038148;28;20104;-65
2023/07/08 04:31:47;;;;;;;6.93;4.50;;;;;;;;;;5046874;28;20524;-66
2023/07/08 04:34:13;;;;;;;8.57;4.15;;;;;;;;;;5050941;28;20108;-65
2023/07/08 04:36:38;;;;;;;9.15;4.28;;;;;;;;;;5034784;28;20029;-65
2023/07/08 04:39:04;;;;;;;7.07;3.90;;;;;;;;;;5031722;28;20027;-65
2023/07/08 04:41:30;;;;;;;9.38;4.10;;;;;;;;;;5031500;28;20064;-65
2023/07/08 04:43:57;;;;;;;6.90;4.07;;;;;;;;;;5017424;28;20072;-65
2023/07/08 04:46:45;;;;;;;10.45;4.50;;;;;;;;;;5032203;28;20014;-65
2023/07/08 04:49:11;;;;;;;9.65;4.10;;;;;;;;;;4946819;29;20035;-66
2023/07/08 04:51:37;;;;;;;9.88;3.92;;;;;;;;;;4947618;29;20581;-65
2023/07/08 04:54:03;;;;;;;9.57;4.72;;;;;;;;;;4951995;29;20055;-65
2023/07/08 04:56:41;;;;;;;5.75;3.95;;;;;;;;;;4952769;28;20405;-66
2023/07/08 04:59:10;;;;;;;6.22;3.53;;;;;;;;;;4953256;29;20039;-65
2023/07/08 05:01:36;;;;;;;7.35;3.78;;;;;;;;;;4952716;29;20119;-66
2023/07/08 05:04:02;;;;;;;9.55;3.60;;;;;;;;;;4951816;29;20490;-66
2023/07/08 05:06:27;;;;;;;6.38;3.75;;;;;;;;;;4949167;29;20195;-65
2023/07/08 05:08:52;;;;;;;8.00;4.07;;;;;;;;;;4954908;29;20031;-66
2023/07/08 05:11:18;;;;;;;7.82;3.83;;;;;;;;;;4955055;29;20027;-65
2023/07/08 05:13:43;;;;;;;6.47;3.95;;;;;;;;;;4954373;29;20051;-66
2023/07/08 05:16:08;;;;;;;7.03;3.70;;;;;;;;;;4949433;29;20031;-66
2023/07/08 05:18:33;;;;;;;6.75;3.60;;;;;;;;;;4946079;29;20031;-65
2023/07/08 05:20:59;;;;;;;6.90;3.90;;;;;;;;;;4954409;29;20070;-66
2023/07/08 05:23:24;;;;;;;7.85;4.05;;;;;;;;;;4952040;28;20023;-66
2023/07/08 05:25:49;;;;;;;6.00;3.60;;;;;;;;;;4981943;28;20037;-65
2023/07/08 05:28:15;;;;;;;5.72;3.90;;;;;;;;;;5042869;28;20032;-65
2023/07/08 05:30:40;;;;;;;7.38;4.05;;;;;;;;;;5032964;28;20052;-66
2023/07/08 05:33:06;;;;;;;6.90;3.63;;;;;;;;;;5036119;28;20100;-65
2023/07/08 05:35:31;;;;;;;6.60;3.60;;;;;;;;;;5041033;28;20385;-66
2023/07/08 05:37:56;;;;;;;7.63;4.10;;;;;;;;;;5035032;28;20029;-66
2023/07/08 05:40:21;;;;;;;8.52;3.80;;;;;;;;;;5032567;28;20108;-66
2023/07/08 05:42:47;;;;;;;5.82;3.75;;;;;;;;;;5031973;28;20085;-66
2023/07/08 05:45:12;;;;;;;5.72;3.42;;;;;;;;;;5036820;28;20454;-66
2023/07/08 05:47:37;;;;;;;7.10;4.03;;;;;;;;;;5036195;28;20360;-66
2023/07/08 05:50:03;;;;;;;4.97;3.00;;;;;;;;;;5034691;28;20052;-66
2023/07/08 05:52:28;;;;;;;7.05;3.30;;;;;;;;;;5040846;28;20389;-66
2023/07/08 05:54:54;;;;;;;4.97;3.28;;;;;;;;;;5034220;28;20028;-66
2023/07/08 05:57:20;;;;;;;6.70;3.42;;;;;;;;;;5034120;28;20475;-66
2023/07/08 05:59:45;;;;;;;6.03;3.10;;;;;;;;;;5046815;28;20116;-66
2023/07/08 06:02:11;;;;;;;8.82;3.47;;;;;;;;;;5035259;28;20473;-67
2023/07/08 06:04:37;;;;;;;7.43;3.33;;;;;;;;;;5032694;28;20018;-66
2023/07/08 06:07:02;;;;;;;7.32;3.65;;;;;;;;;;5034613;28;20014;-66
2023/07/08 06:09:27;;;;;;;7.40;3.47;;;;;;;;;;5036084;28;20116;-66
2023/07/08 06:11:52;;;;;;;6.40;3.25;;;;;;;;;;5033730;28;20381;-66
2023/07/08 06:14:18;;;;;;;5.95;3.20;;;;;;;;;;5040037;28;20374;-66
2023/07/08 06:16:43;;;;;;;6.78;3.15;;;;;;;;;;5042225;28;20025;-67
2023/07/08 06:19:08;;;;;;;5.75;3.10;;;;;;;;;;5033613;28;20022;-67
2023/07/08 06:21:34;;;;;;;6.57;3.13;;;;;;;;;;5035298;28;20037;-66
2023/07/08 06:23:59;;;;;;;5.78;3.20;;;;;;;;;;5032768;28;20031;-67
2023/07/08 06:26:24;;;;;;;5.85;3.10;;;;;;;;;;5031987;28;20378;-66
2023/07/08 06:28:50;;;;;;;6.45;3.22;;;;;;;;;;5033613;28;20044;-67
2023/07/08 06:31:15;;;;;;;5.03;2.97;;;;;;;;;;5042035;28;20024;-66
2023/07/08 06:33:40;;;;;;;6.53;3.22;;;;;;;;;;5034913;28;20393;-66
2023/07/08 06:36:07;;;;;;;5.88;3.00;;;;;;;;;;5031682;28;21741;-67
2023/07/08 06:38:33;;;;;;;5.65;3.53;;;;;;;;;;5033726;28;20025;-66
2023/07/08 06:40:58;;;;;;;7.88;3.22;;;;;;;;;;5034780;28;20076;-67
2023/07/08 06:43:23;;;;;;;4.80;2.90;;;;;;;;;;5029370;28;20431;-66
2023/07/08 06:45:48;;;;;;;7.20;3.22;;;;;;;;;;5041182;28;20428;-67
2023/07/08 06:48:13;;;;;;;6.63;3.17;;;;;;;;;;5033658;28;20468;-67
2023/07/08 06:50:41;;;;;;;8.23;3.17;;;;;;;;;;5036523;28;20439;-66
2023/07/08 06:53:07;;;;;;;6.90;3.20;;;;;;;;;;5033005;28;20476;-67
2023/07/08 06:55:33;;;;;;;5.88;3.25;;;;;;;;;;5034567;28;20095;-66
2023/07/08 06:57:58;;;;;;;7.38;3.08;;;;;;;;;;5031656;28;20025;-67
2023/07/08 07:00:23;;;;;;;5.03;2.80;;;;;;;;;;5030650;28;20033;-66
2023/07/08 07:02:48;;;;;;;6.70;3.10;;;;;;;;;;5032921;28;20048;-67
2023/07/08 07:05:14;;;;;;;6.38;2.90;;;;;;;;;;5046176;28;20021;-66
2023/07/08 07:07:39;;;;;;;6.32;3.33;;;;;;;;;;5033819;28;20440;-67
2023/07/08 07:10:05;;;;;;;6.75;2.90;;;;;;;;;;5033436;28;20428;-67
2023/07/08 07:12:30;;;;;;;4.85;2.60;;;;;;;;;;5031393;28;20484;-67
2023/07/08 07:14:56;;;;;;;6.18;3.28;;;;;;;;;;5022958;28;20018;-67
2023/07/08 07:17:22;;;;;;;5.35;2.80;;;;;;;;;;5028887;28;20024;-67
2023/07/08 07:19:47;;;;;;;7.57;2.70;;;;;;;;;;5032765;28;20024;-67
2023/07/08 07:22:13;;;;;;;6.20;3.20;;;;;;;;;;5031663;28;20475;-67
2023/07/08 07:24:38;;;;;;;5.50;2.63;;;;;;;;;;5031546;28;20072;-67
2023/07/08 07:27:03;;;;;;;7.28;2.83;;;;;;;;;;5031288;28;20029;-67
2023/07/08 07:29:37;;;;;;;4.93;2.60;;;;;;;;;;5038050;28;20155;-67
2023/07/08 07:32:03;;;;;;;4.35;2.72;;;;;;;;;;5040511;28;20025;-67
2023/07/08 07:34:28;;;;;;;6.13;2.78;;;;;;;;;;5032759;28;20036;-67
2023/07/08 07:36:53;;;;;;;6.05;2.83;;;;;;;;;;5044193;28;20025;-68
2023/07/08 07:39:18;;;;;;;6.65;2.70;;;;;;;;;;5039102;28;20028;-68
2023/07/08 07:41:44;;;;;;;4.57;2.90;;;;;;;;;;5046982;28;20052;-67
2023/07/08 07:44:09;;;;;;;5.03;2.63;;;;;;;;;;5036742;28;20024;-67
2023/07/08 07:46:34;;;;;;;4.43;2.75;;;;;;;;;;5044467;28;20031;-67
2023/07/08 07:48:59;;;;;;;6.40;3.10;;;;;;;;;;5029839;28;20017;-67
2023/07/08 07:51:25;;;;;;;6.22;2.67;;;;;;;;;;5032589;28;20052;-67
2023/07/08 07:53:50;;;;;;;5.70;2.90;;;;;;;;;;5031628;28;20432;-68
2023/07/08 07:56:15;;;;;;;5.22;2.75;;;;;;;;;;5032755;28;20021;-67
2023/07/08 07:58:40;;;;;;;8.55;2.90;;;;;;;;;;5030841;28;20021;-67
2023/07/08 08:01:06;;;;;;;5.40;2.55;;;;;;;;;;5033907;28;20021;-67
2023/07/08 08:03:31;;;;;;;4.57;2.65;;;;;;;;;;4993524;28;1254765;-68
2023/07/08 08:05:57;;;;;;;6.28;2.63;;;;;;;;;;5049111;28;20059;-67
2023/07/08 08:08:22;;;;;;;5.00;2.72;;;;;;;;;;5032230;28;20063;-67
2023/07/08 08:10:47;;;;;;;6.15;2.97;;;;;;;;;;5045564;28;20093;-67
2023/07/08 08:13:12;;;;;;;7.43;2.65;;;;;;;;;;5049786;28;20500;-67
2023/07/08 08:15:38;;;;;;;6.07;2.60;;;;;;;;;;5038822;28;20018;-67
2023/07/08 08:18:03;;;;;;;4.13;2.28;;;;;;;;;;5053151;28;20024;-67
2023/07/08 08:20:29;;;;;;;7.72;2.80;;;;;;;;;;5041907;28;20388;-67
2023/07/08 08:22:54;;;;;;;5.70;2.85;;;;;;;;;;5031373;28;20359;-68
2023/07/08 08:25:20;;;;;;;4.45;2.60;;;;;;;;;;5032749;28;20017;-67
2023/07/08 08:27:45;;;;;;;7.00;2.30;;;;;;;;;;5030721;28;20485;-67
2023/07/08 08:30:11;;;;;;;4.53;2.40;;;;;;;;;;5042658;28;20080;-67
2023/07/08 08:32:36;;;;;;;5.72;2.58;;;;;;;;;;5041214;28;20043;-68
2023/07/08 08:35:02;;;;;;;5.22;2.25;;;;;;;;;;5034880;28;20366;-68
2023/07/08 08:37:27;;;;;;;6.13;2.70;;;;;;;;;;5035112;28;20017;-67
2023/07/08 08:39:52;;;;;;;4.07;2.33;;;;;;;;;;5035394;28;20436;-68
2023/07/08 08:42:26;;;;;;;4.70;2.25;;;;;;;;;;5035969;28;20113;-68
2023/07/08 08:44:52;;;;;;;4.97;2.40;;;;;;;;;;5043487;28;20530;-68
2023/07/08 08:47:26;;;;;;;6.97;2.95;;;;;;;;;;5032713;28;20021;-68
2023/07/08 08:49:56;;;;;;;4.97;2.45;;;;;;;;;;5049712;28;20021;-68
2023/07/08 08:52:22;;;;;;;10.60;2.60;;;;;;;;;;5031767;28;20017;-68
2023/07/08 08:54:50;;;;;;;6.45;3.03;;;;;;;;;;5045511;28;20029;-68
2023/07/08 08:57:19;;;;;;;4.53;2.25;;;;;;;;;;5038703;28;20026;-68
2023/07/08 08:59:44;;;;;;;4.20;2.10;;;;;;;;;;5037214;28;20358;-68
2023/07/08 09:02:28;;;;;;;6.45;2.40;;;;;;;;;;5033667;28;20033;-67
2023/07/08 09:04:53;;;;;;;4.82;2.20;;;;;;;;;;5036813;28;20542;-68
2023/07/08 09:07:20;;;;;;;5.43;2.30;;;;;;;;;;5026898;28;20041;-68
2023/07/08 09:09:54;;;;;;;5.35;2.35;;;;;;;;;;5034562;28;20025;-68
2023/07/08 09:12:22;;;;;;;5.70;2.30;;;;;;;;;;5044256;28;20037;-68
2023/07/08 09:14:49;;;;;;;5.88;2.30;;;;;;;;;;5036240;28;20366;-68
2023/07/08 09:17:20;;;;;;;4.63;2.42;;;;;;;;;;5043221;28;20029;-68
2023/07/08 09:19:51;;;;;;;7.30;2.60;;;;;;;;;;5033939;28;20474;-68
2023/07/08 09:22:20;;;;;;;4.72;2.35;;;;;;;;;;5031194;28;20501;-68
2023/07/08 09:24:45;;;;;;;7.97;2.30;;;;;;;;;;5033508;28;20022;-68
2023/07/08 09:27:10;;;;;;;4.93;2.30;;;;;;;;;;5044309;28;20418;-68
2023/07/08 09:29:36;;;;;;;4.88;2.13;;;;;;;;;;5033236;28;20295;-68
2023/07/08 09:32:13;;;;;;;4.82;2.13;;;;;;;;;;5032579;28;20025;-68
2023/07/08 09:34:43;;;;;;;5.05;2.22;;;;;;;;;;5030437;28;21701;-68
2023/07/08 09:37:29;;;;;;;4.43;2.22;;;;;;;;;;5029629;28;20028;-68
2023/07/08 09:39:55;;;;;;;6.53;2.28;;;;;;;;;;5029207;28;20108;-68
2023/07/08 09:42:21;;;;;;;6.18;2.30;;;;;;;;;;5031043;28;20025;-68
2023/07/08 09:44:47;;;;;;;4.63;2.22;;;;;;;;;;5029565;28;20033;-68
2023/07/08 09:47:23;;;;;;;5.15;2.33;;;;;;;;;;5033865;28;20040;-68
2023/07/08 09:49:48;;;;;;;4.85;2.15;;;;;;;;;;5031519;28;20075;-67
2023/07/08 09:52:13;;;;;;;4.68;2.15;;;;;;;;;;5033506;28;20009;-68
2023/07/08 09:54:41;;;;;;;433.60;338.20;;;;;;;;;;5028618;28;20029;-68
2023/07/08 09:57:18;;;;;;;5.65;3.47;;;;;;;;;;5029490;28;20026;-68
2023/07/08 09:59:48;;;;;;;8.07;3.30;;;;;;;;;;5032436;28;20573;-68
2023/07/08 10:02:24;;;;;;;6.13;2.30;;;;;;;;;;5030050;28;20057;-68
2023/07/08 10:04:52;;;;;;;6.13;4.53;;;;;;;;;;5037722;28;20291;-69
2023/07/08 10:07:17;;;;;;;4.57;2.50;;;;;;;;;;5035194;28;20071;-69
2023/07/08 10:09:42;;;;;;;5.05;2.10;;;;;;;;;;5035348;28;20017;-68
2023/07/08 10:12:12;;;;;;;5.38;2.35;;;;;;;;;;5032258;28;20108;-68
2023/07/08 10:14:42;;;;;;;6.43;2.37;;;;;;;;;;5033039;28;20115;-66
2023/07/08 10:17:13;;;;;;;3.88;2.40;;;;;;;;;;5028405;28;20037;-66
2023/07/08 10:19:38;;;;;;;5.10;2.30;;;;;;;;;;5033271;28;20033;-67
2023/07/08 10:22:10;;;;;;;5.75;2.20;;;;;;;;;;5032671;28;20167;-66
2023/07/08 10:25:03;;;;;;;4.25;2.10;;;;;;;;;;5033259;28;20504;-66
2023/07/08 10:27:31;;;;;;;5.32;2.60;;;;;;;;;;5032897;28;20019;-67
2023/07/08 10:29:56;;;;;;;6.40;2.22;;;;;;;;;;5033378;28;20377;-66
2023/07/08 10:32:21;;;;;;;4.17;2.13;;;;;;;;;;5030139;28;20028;-67
2023/07/08 10:34:47;;;;;;;4.47;2.30;;;;;;;;;;5028655;28;20299;-67
2023/07/08 10:37:31;;;;;;;6.30;2.28;;;;;;;;;;5029210;28;20021;-67
2023/07/08 10:40:15;;;;;;;4.82;2.40;;;;;;;;;;5032446;28;20091;-68
2023/07/08 10:42:55;;;;;;;4.47;2.50;;;;;;;;;;5025069;28;20396;-67
2023/07/08 10:45:31;;;;;;;5.00;2.35;;;;;;;;;;5029762;28;20490;-67
2023/07/08 10:48:17;;;;;;;5.25;2.40;;;;;;;;;;5025432;28;20030;-67
2023/07/08 10:50:42;;;;;;;4.57;2.33;;;;;;;;;;5024419;28;20466;-67
2023/07/08 10:53:25;;;;;;;5.17;2.20;;;;;;;;;;5024028;28;20025;-68
2023/07/08 10:55:53;;;;;;;4.00;2.30;;;;;;;;;;5030783;28;20280;-68
2023/07/08 10:58:22;;;;;;;3.38;2.20;;;;;;;;;;5024863;28;20698;-68
2023/07/08 11:00:50;;;;;;;8.52;2.40;;;;;;;;;;5038939;28;20470;-68
2023/07/08 11:03:33;;;;;;;4.88;2.47;;;;;;;;;;5028576;28;20144;-68
2023/07/08 11:06:02;;;;;;;4.93;2.33;;;;;;;;;;5030279;28;20373;-68
2023/07/08 11:08:30;;;;;;;6.00;2.25;;;;;;;;;;5033464;28;20049;-68
2023/07/08 11:11:01;;;;;;;4.45;2.20;;;;;;;;;;5025134;28;20029;-67
2023/07/08 11:13:28;;;;;;;4.47;2.30;;;;;;;;;;5026742;28;20033;-67
2023/07/08 11:16:12;;;;;;;4.63;2.28;;;;;;;;;;5029583;28;20395;-68
2023/07/08 11:18:45;;;;;;;6.43;2.50;;;;;;;;;;5032387;28;20496;-68
2023/07/08 11:21:17;;;;;;;4.95;2.50;;;;;;;;;;5038658;28;20464;-68
2023/07/08 11:24:01;;;;;;;5.18;2.38;;;;;;;;;;5031242;28;20108;-68
2023/07/08 11:26:33;;;;;;;5.10;2.50;;;;;;;;;;5031311;28;20385;-68
2023/07/08 11:28:59;;;;;;;4.32;2.30;;;;;;;;;;5034088;28;20056;-67
2023/07/08 11:31:25;;;;;;;4.88;2.50;;;;;;;;;;5043624;28;20207;-68
2023/07/08 11:33:52;;;;;;;5.18;2.47;;;;;;;;;;5054112;28;20468;-68
2023/07/08 11:36:19;;;;;;;5.13;2.30;;;;;;;;;;5043506;28;20029;-68
2023/07/08 11:38:52;;;;;;;4.78;2.50;;;;;;;;;;5031880;28;20021;-67
2023/07/08 11:41:19;;;;;;;5.15;2.20;;;;;;;;;;5033928;28;20021;-68
2023/07/08 11:43:48;;;;;;;5.45;2.50;;;;;;;;;;5030541;28;20055;-68
2023/07/08 11:46:20;;;;;;;4.22;2.15;;;;;;;;;;5039362;28;20059;-68
2023/07/08 11:48:47;;;;;;;6.72;2.78;;;;;;;;;;5035578;28;20349;-68
2023/07/08 11:51:33;;;;;;;4.20;2.60;;;;;;;;;;5032070;28;20021;-68
2023/07/08 11:53:59;;;;;;;4.60;2.45;;;;;;;;;;5039973;28;20091;-67
2023/07/08 11:56:25;;;;;;;5.40;2.47;;;;;;;;;;5040290;28;20474;-68
2023/07/08 11:58:50;;;;;;;6.65;2.30;;;;;;;;;;5024447;28;20083;-68
2023/07/08 12:01:18;;;;;;;6.53;2.22;;;;;;;;;;5028059;28;20048;-67
2023/07/08 12:03:48;;;;;;;5.18;2.53;;;;;;;;;;5034049;28;20037;-67
2023/07/08 12:06:29;;;;;;;4.15;2.40;;;;;;;;;;5030114;28;20414;-67
2023/07/08 12:08:55;;;;;;;4.85;2.50;;;;;;;;;;5029485;28;20030;-68
2023/07/08 12:11:25;;;;;;;5.00;2.58;;;;;;;;;;5026713;28;20446;-67
2023/07/08 12:13:50;;;;;;;4.85;2.33;;;;;;;;;;5038199;28;20060;-67
2023/07/08 12:16:15;;;;;;;6.00;2.80;;;;;;;;;;5030052;28;20033;-67
2023/07/08 12:18:45;;;;;;;6.07;2.70;;;;;;;;;;5034029;28;20032;-68
2023/07/08 12:21:12;;;;;;;6.07;2.60;;;;;;;;;;5029590;28;20032;-67
2023/07/08 12:23:43;;;;;;;4.78;2.60;;;;;;;;;;5032396;28;20033;-69
2023/07/08 12:26:08;;;;;;;4.82;2.83;;;;;;;;;;5030333;28;20497;-67
2023/07/08 12:28:36;;;;;;;5.32;2.50;;;;;;;;;;5031234;28;20027;-67
2023/07/08 12:31:01;;;;;;;5.03;2.40;;;;;;;;;;5026017;28;20029;-66
2023/07/08 12:33:33;;;;;;;4.70;2.50;;;;;;;;;;5029011;28;20024;-66
2023/07/08 12:36:01;;;;;;;6.65;2.85;;;;;;;;;;5042355;28;20025;-66
2023/07/08 12:38:35;;;;;;;5.85;2.30;;;;;;;;;;5034529;28;20080;-67
2023/07/08 12:41:01;;;;;;;9.18;2.40;;;;;;;;;;5027306;28;20024;-67
2023/07/08 12:43:27;;;;;;;4.80;2.50;;;;;;;;;;5046052;28;20507;-67
2023/07/08 12:45:52;;;;;;;4.50;2.57;;;;;;;;;;5035601;28;20092;-67
2023/07/08 12:48:18;;;;;;;4.20;2.60;;;;;;;;;;5035996;28;20312;-68
2023/07/08 12:50:43;;;;;;;4.70;2.40;;;;;;;;;;5031900;28;20017;-68
2023/07/08 12:53:12;;;;;;;4.68;2.47;;;;;;;;;;5031673;28;20125;-68
2023/07/08 12:55:38;;;;;;;4.88;2.35;;;;;;;;;;5033765;28;20045;-67
2023/07/08 12:58:04;;;;;;;5.00;2.50;;;;;;;;;;5039428;28;20022;-67
2023/07/08 13:00:30;;;;;;;5.00;2.47;;;;;;;;;;5028429;28;20021;-68
2023/07/08 13:03:03;;;;;;;4.65;2.40;;;;;;;;;;5029256;28;20057;-67
2023/07/08 13:05:29;;;;;;;4.15;2.25;;;;;;;;;;5027973;28;20018;-68
2023/07/08 13:07:55;;;;;;;5.32;2.42;;;;;;;;;;5025797;28;20036;-67
2023/07/08 13:10:23;;;;;;;5.00;2.50;;;;;;;;;;5029511;28;20010;-68
2023/07/08 13:12:51;;;;;;;8.05;2.75;;;;;;;;;;5030242;28;20401;-68
2023/07/08 13:15:21;;;;;;;7.38;2.58;;;;;;;;;;5027905;28;20018;-67
2023/07/08 13:17:47;;;;;;;;;;;;;;;;;;5039514;28;20390;-67
2023/07/08 13:20:16;;;;;;;4.35;2.55;;;;;;;;;;5034994;28;20380;-68
2023/07/08 13:22:43;;;;;;;4.45;2.58;;;;;;;;;;5033658;28;20091;-67
2023/07/08 13:25:19;;;;;;;8.60;3.67;;;;;;;;;;5038881;28;20029;-68
2023/07/08 13:27:54;;;;;;;6.60;2.95;;;;;;;;;;5031802;28;20018;-68
2023/07/08 13:30:20;;;;;;;5.63;2.85;;;;;;;;;;5041167;28;20021;-68
2023/07/08 13:32:56;;;;;;;5.95;2.70;;;;;;;;;;5040135;28;20083;-68
2023/07/08 13:35:26;;;;;;;5.45;2.50;;;;;;;;;;5035508;28;20025;-68
2023/07/08 13:37:52;;;;;;;6.25;2.75;;;;;;;;;;5042337;28;20022;-68
2023/07/08 13:40:17;;;;;;;5.80;2.60;;;;;;;;;;5034597;28;20040;-68
2023/07/08 13:42:47;;;;;;;5.45;2.67;;;;;;;;;;5042020;28;20028;-68
2023/07/08 13:45:14;;;;;;;4.40;2.55;;;;;;;;;;5036456;28;20025;-68
2023/07/08 13:47:39;;;;;;;5.47;2.70;;;;;;;;;;5036987;28;20052;-68
2023/07/08 13:50:15;;;;;;;4.88;2.70;;;;;;;;;;5034985;28;20021;-68
2023/07/08 13:52:43;;;;;;;4.82;2.70;;;;;;;;;;5033235;28;20028;-68
2023/07/08 13:55:17;;;;;;;7.20;2.70;;;;;;;;;;5034863;28;20045;-68
2023/07/08 13:57:42;;;;;;;8.07;2.78;;;;;;;;;;5037573;28;20021;-68
2023/07/08 14:00:08;;;;;;;8.25;2.78;;;;;;;;;;5041581;28;20082;-68
2023/07/08 14:02:34;;;;;;;4.75;2.45;;;;;;;;;;5032711;28;20048;-70
2023/07/08 14:05:05;;;;;;;4.65;2.45;;;;;;;;;;5036059;28;20025;-67
2023/07/08 14:07:32;;;;;;;10.73;2.90;;;;;;;;;;5032164;28;20017;-68
2023/07/08 14:09:57;;;;;;;6.88;3.05;;;;;;;;;;5034637;28;20021;-68
2023/07/08 14:12:22;;;;;;;6.38;3.03;;;;;;;;;;5032405;28;20025;-69
2023/07/08 14:14:47;;;;;;;5.25;2.58;;;;;;;;;;5035648;28;20037;-69
2023/07/08 14:17:16;;;;;;;4.20;2.70;;;;;;;;;;5035066;28;20017;-69
2023/07/08 14:19:41;;;;;;;4.63;2.60;;;;;;;;;;5033278;28;20025;-70
2023/07/08 14:22:20;;;;;;;4.28;2.60;;;;;;;;;;5031929;28;20397;-68
2023/07/08 14:24:46;;;;;;;4.57;2.50;;;;;;;;;;5038162;28;20025;-69
2023/07/08 14:27:13;;;;;;;8.00;2.80;;;;;;;;;;5031037;28;20084;-69
2023/07/08 14:29:38;;;;;;;7.65;2.58;;;;;;;;;;5028302;28;20014;-68
2023/07/08 14:32:04;;;;;;;4.97;3.03;;;;;;;;;;5029184;28;20067;-69
2023/07/08 14:34:29;;;;;;;5.40;2.92;;;;;;;;;;5023073;28;20033;-68
2023/07/08 14:36:55;;;;;;;4.32;2.80;;;;;;;;;;5029556;28;20478;-68
2023/07/08 14:39:20;;;;;;;7.90;3.15;;;;;;;;;;5031991;28;20049;-69
2023/07/08 14:41:47;;;;;;;5.50;2.88;;;;;;;;;;5029702;28;20128;-69